Palencia — E5U3004 — position and weather

sailwx.info

Track history (hours):
 
Tides and Currents Weather Stations Pressure Air Temp Water Temp Dewpoint Dewpoint Depression Visibility Wind Speed Wind Dir Waves Ship Positions

Palencia

Last reported at 2018-Feb-19 18:05 UTC. Time now 2018-Feb-20 21:45 UTC.
Position N 39°59' E 018°31'.

Length 122 m; draft 5.7 m.

Type: Cargo ship. MMSI: 518100059.

Date/timePositionNaut miles runAvg speedWind from/ knotsBaromVisibWave heightAir tempDewpointWater temp
2018-Feb-19 18:05N 39°59' E 018°31'112.9
2018-Feb-19 18:00N 39°58' E 018°31'612.7
2018-Feb-19 17:30N 39°52' E 018°28'6312.5
2018-Feb-19 12:27N 39°42' E 017°07'612.2
2018-Feb-19 11:59N 39°41' E 016°59'713.0
2018-Feb-19 11:28N 39°41' E 016°51'1213.3
2018-Feb-19 10:35N 39°41' E 016°35'113.6
2018-Feb-19 10:29N 39°40' E 016°34'2 0.7
2018-Feb-19 08:12N 39°40' E 016°32'0 0.0
2018-Feb-19 06:27N 39°40' E 016°32'0 0.0
2018-Feb-19 05:57N 39°40' E 016°32'0 0.0
2018-Feb-19 05:30N 39°40' E 016°32'0 0.0
2018-Feb-19 00:15N 39°40' E 016°32'0 0.0
2018-Feb-18 23:57N 39°40' E 016°32'0 0.0
2018-Feb-18 23:18N 39°40' E 016°32'0 0.0
2018-Feb-18 23:00N 39°40' E 016°32'0 0.0
2018-Feb-18 20:15N 39°40' E 016°32'0 0.0
2018-Feb-18 18:54N 39°40' E 016°32'0 0.0
2018-Feb-18 18:30N 39°40' E 016°32'0 0.0
2018-Feb-18 18:00N 39°40' E 016°32'0 0.0
2018-Feb-18 17:27N 39°40' E 016°32'0 0.0
2018-Feb-18 04:30N 39°40' E 016°32'0 0.0
2018-Feb-18 04:00N 39°40' E 016°32'0 0.0
2018-Feb-18 03:30N 39°40' E 016°32'0 0.0
2018-Feb-18 03:00N 39°40' E 016°32'0 0.0
2018-Feb-18 02:18N 39°40' E 016°32'0 0.0
2018-Feb-17 23:33N 39°40' E 016°32'0 0.0
2018-Feb-17 23:09N 39°40' E 016°32'0 0.0
2018-Feb-17 23:00N 39°40' E 016°32'0 0.0
2018-Feb-17 22:30N 39°40' E 016°32'0 0.0
2018-Feb-17 22:00N 39°40' E 016°32'0 0.0
2018-Feb-17 21:30N 39°40' E 016°32'0 0.0
2018-Feb-17 20:39N 39°40' E 016°32'0 0.0
2018-Feb-17 20:30N 39°40' E 016°32'0 0.0
2018-Feb-17 20:00N 39°40' E 016°32'0 0.0
2018-Feb-17 19:30N 39°40' E 016°32'0 0.0
2018-Feb-17 18:57N 39°40' E 016°32'0 0.0
2018-Feb-17 18:30N 39°40' E 016°32'0 0.0
2018-Feb-17 18:00N 39°40' E 016°32'0 0.0
2018-Feb-17 16:57N 39°40' E 016°32'0 0.6
2018-Feb-17 16:30N 39°40' E 016°31'1 2.4
2018-Feb-17 16:00N 39°40' E 016°33'0 0.8
2018-Feb-17 15:30N 39°40' E 016°33'0 0.5
2018-Feb-17 15:00N 39°40' E 016°33'4 7.8
2018-Feb-17 14:30N 39°40' E 016°38'612.0
2018-Feb-17 14:00N 39°40' E 016°46'612.4
2018-Feb-17 13:29N 39°38' E 016°54'612.9
2018-Feb-17 12:59N 39°34' E 017°01'713.1
2018-Feb-17 12:25N 39°30' E 017°09'613.4
2018-Feb-17 12:00N 39°27' E 017°15'1212.5
2018-Feb-17 11:04N 39°15' E 017°18'413.3
2018-Feb-17 10:43N 39°11' E 017°19'1412.8
2018-Feb-17 09:37N 38°57' E 017°15'9013.1
2018-Feb-17 02:43N 37°44' E 016°06'513.7
2018-Feb-17 02:22N 37°40' E 016°04'613.7
2018-Feb-17 01:58N 37°35' E 016°00'8112.1
2018-Feb-16 19:15N 36°39' E 014°46'513.5
2018-Feb-16 18:53N 36°41' E 014°40'613.4
2018-Feb-16 18:28N 36°42' E 014°34'714.1
2018-Feb-16 18:00N 36°45' E 014°26'714.3
2018-Feb-16 17:30N 36°49' E 014°19'714.1
2018-Feb-16 17:00N 36°52' E 014°11'714.3
2018-Feb-16 16:30N 36°56' E 014°03'714.2
2018-Feb-16 16:00N 36°59' E 013°55'713.9
2018-Feb-16 15:30N 37°02' E 013°47'  
2018-Feb-13 18:37N 35°56' W 005°15'113.0
2018-Feb-13 18:30N 35°56' W 005°17'2 3.5
2018-Feb-13 18:00N 35°55' W 005°19'1 2.0
2018-Feb-13 17:30N 35°56' W 005°19'0 0.6
2018-Feb-13 17:00N 35°56' W 005°19'4 8.2
2018-Feb-13 16:30N 35°55' W 005°14'4 8.1
2018-Feb-13 16:00N 35°54' W 005°18'0 0.2
2018-Feb-13 15:29N 35°54' W 005°18'0 0.0
2018-Feb-13 14:59N 35°54' W 005°18'0 0.0
2018-Feb-13 14:29N 35°54' W 005°18'0 0.0
2018-Feb-13 13:59N 35°54' W 005°18'0 0.0
2018-Feb-13 13:29N 35°54' W 005°18'0 0.0
2018-Feb-13 12:59N 35°54' W 005°18'0 0.4
2018-Feb-13 12:31N 35°54' W 005°19'2 3.3
2018-Feb-13 12:00N 35°55' W 005°18'4 8.1
2018-Feb-13 11:30N 35°58' W 005°22'  
Track history (hours):
 
Tides and Currents Weather Stations Pressure Air Temp Water Temp Dewpoint Dewpoint Depression Visibility Wind Speed Wind Dir Waves Ship Positions

Palencia

Last reported at 2018-Feb-19 18:05 UTC. Time now 2018-Feb-20 21:45 UTC.
Position N 39°59' E 018°31'.

Length 122 m; draft 5.7 m.

Type: Cargo ship. MMSI: 518100059.

Date/timePositionNaut miles runAvg speedWind from/ knotsBaromVisibWave heightAir tempDewpointWater temp
2018-Feb-19 18:05N 39°59' E 018°31'112.9
2018-Feb-19 18:00N 39°58' E 018°31'612.7
2018-Feb-19 17:30N 39°52' E 018°28'6312.5
2018-Feb-19 12:27N 39°42' E 017°07'612.2
2018-Feb-19 11:59N 39°41' E 016°59'713.0
2018-Feb-19 11:28N 39°41' E 016°51'1213.3
2018-Feb-19 10:35N 39°41' E 016°35'113.6
2018-Feb-19 10:29N 39°40' E 016°34'2 0.7
2018-Feb-19 08:12N 39°40' E 016°32'0 0.0
2018-Feb-19 06:27N 39°40' E 016°32'0 0.0
2018-Feb-19 05:57N 39°40' E 016°32'0 0.0
2018-Feb-19 05:30N 39°40' E 016°32'0 0.0
2018-Feb-19 00:15N 39°40' E 016°32'0 0.0
2018-Feb-18 23:57N 39°40' E 016°32'0 0.0
2018-Feb-18 23:18N 39°40' E 016°32'0 0.0
2018-Feb-18 23:00N 39°40' E 016°32'0 0.0
2018-Feb-18 20:15N 39°40' E 016°32'0 0.0
2018-Feb-18 18:54N 39°40' E 016°32'0 0.0
2018-Feb-18 18:30N 39°40' E 016°32'0 0.0
2018-Feb-18 18:00N 39°40' E 016°32'0 0.0
2018-Feb-18 17:27N 39°40' E 016°32'0 0.0
2018-Feb-18 04:30N 39°40' E 016°32'0 0.0
2018-Feb-18 04:00N 39°40' E 016°32'0 0.0
2018-Feb-18 03:30N 39°40' E 016°32'0 0.0
2018-Feb-18 03:00N 39°40' E 016°32'0 0.0
2018-Feb-18 02:18N 39°40' E 016°32'0 0.0
2018-Feb-17 23:33N 39°40' E 016°32'0 0.0
2018-Feb-17 23:09N 39°40' E 016°32'0 0.0
2018-Feb-17 23:00N 39°40' E 016°32'0 0.0
2018-Feb-17 22:30N 39°40' E 016°32'0 0.0
2018-Feb-17 22:00N 39°40' E 016°32'0 0.0
2018-Feb-17 21:30N 39°40' E 016°32'0 0.0
2018-Feb-17 20:39N 39°40' E 016°32'0 0.0
2018-Feb-17 20:30N 39°40' E 016°32'0 0.0
2018-Feb-17 20:00N 39°40' E 016°32'0 0.0
2018-Feb-17 19:30N 39°40' E 016°32'0 0.0
2018-Feb-17 18:57N 39°40' E 016°32'0 0.0
2018-Feb-17 18:30N 39°40' E 016°32'0 0.0
2018-Feb-17 18:00N 39°40' E 016°32'0 0.0
2018-Feb-17 16:57N 39°40' E 016°32'0 0.6
2018-Feb-17 16:30N 39°40' E 016°31'1 2.4
2018-Feb-17 16:00N 39°40' E 016°33'0 0.8
2018-Feb-17 15:30N 39°40' E 016°33'0 0.5
2018-Feb-17 15:00N 39°40' E 016°33'4 7.8
2018-Feb-17 14:30N 39°40' E 016°38'612.0
2018-Feb-17 14:00N 39°40' E 016°46'612.4
2018-Feb-17 13:29N 39°38' E 016°54'612.9
2018-Feb-17 12:59N 39°34' E 017°01'713.1
2018-Feb-17 12:25N 39°30' E 017°09'613.4
2018-Feb-17 12:00N 39°27' E 017°15'1212.5
2018-Feb-17 11:04N 39°15' E 017°18'413.3
2018-Feb-17 10:43N 39°11' E 017°19'1412.8
2018-Feb-17 09:37N 38°57' E 017°15'9013.1
2018-Feb-17 02:43N 37°44' E 016°06'513.7
2018-Feb-17 02:22N 37°40' E 016°04'613.7
2018-Feb-17 01:58N 37°35' E 016°00'8112.1
2018-Feb-16 19:15N 36°39' E 014°46'513.5
2018-Feb-16 18:53N 36°41' E 014°40'613.4
2018-Feb-16 18:28N 36°42' E 014°34'714.1
2018-Feb-16 18:00N 36°45' E 014°26'714.3
2018-Feb-16 17:30N 36°49' E 014°19'714.1
2018-Feb-16 17:00N 36°52' E 014°11'714.3
2018-Feb-16 16:30N 36°56' E 014°03'714.2
2018-Feb-16 16:00N 36°59' E 013°55'713.9
2018-Feb-16 15:30N 37°02' E 013°47'  
2018-Feb-13 18:37N 35°56' W 005°15'113.0
2018-Feb-13 18:30N 35°56' W 005°17'2 3.5
2018-Feb-13 18:00N 35°55' W 005°19'1 2.0
2018-Feb-13 17:30N 35°56' W 005°19'0 0.6
2018-Feb-13 17:00N 35°56' W 005°19'4 8.2
2018-Feb-13 16:30N 35°55' W 005°14'4 8.1
2018-Feb-13 16:00N 35°54' W 005°18'0 0.2
2018-Feb-13 15:29N 35°54' W 005°18'0 0.0
2018-Feb-13 14:59N 35°54' W 005°18'0 0.0
2018-Feb-13 14:29N 35°54' W 005°18'0 0.0
2018-Feb-13 13:59N 35°54' W 005°18'0 0.0
2018-Feb-13 13:29N 35°54' W 005°18'0 0.0
2018-Feb-13 12:59N 35°54' W 005°18'0 0.4
2018-Feb-13 12:31N 35°54' W 005°19'2 3.3
2018-Feb-13 12:00N 35°55' W 005°18'4 8.1
2018-Feb-13 11:30N 35°58' W 005°22'  

Dump ship's entire track history